createdAt,value
2022-10-22T00:00:07.928Z,1.27
2022-10-22T00:02:34.825Z,1.33
2022-10-22T00:05:01.863Z,1.50
2022-10-22T00:07:28.868Z,1.38
2022-10-22T00:09:55.738Z,1.55
2022-10-22T00:12:22.979Z,1.35
2022-10-22T00:14:50.824Z,1.15
2022-10-22T00:17:17.856Z,1.27
2022-10-22T00:19:44.881Z,1.10
2022-10-22T00:22:12.530Z,1.27
2022-10-22T00:24:40.313Z,1.35
2022-10-22T00:27:09.017Z,1.38
2022-10-22T00:29:36.002Z,0.95
2022-10-22T00:32:03.045Z,1.27
2022-10-22T00:34:30.013Z,1.40
2022-10-22T00:36:56.905Z,1.35
2022-10-22T00:39:26.176Z,1.38
2022-10-22T00:41:55.246Z,1.30
2022-10-22T00:44:59.962Z,1.30
2022-10-22T00:47:31.456Z,1.10
2022-10-22T00:50:00.063Z,1.25
2022-10-22T00:52:28.269Z,1.20
2022-10-22T00:54:55.567Z,1.48
2022-10-22T00:57:22.928Z,1.40
2022-10-22T01:02:17.091Z,1.13
2022-10-22T01:07:20.722Z,1.33
2022-10-22T01:10:05.785Z,0.90
2022-10-22T01:12:46.309Z,1.35
2022-10-22T01:15:24.741Z,1.30
2022-10-22T01:18:21.717Z,2.20
2022-10-22T01:21:06.951Z,1.83
2022-10-22T01:23:52.992Z,1.50
2022-10-22T01:26:41.777Z,1.58
2022-10-22T01:29:40.925Z,1.63
2022-10-22T01:32:13.533Z,1.58
2022-10-22T01:34:44.378Z,1.30
2022-10-22T01:37:14.005Z,1.95
2022-10-22T01:39:43.757Z,1.70
2022-10-22T01:42:13.147Z,1.65
2022-10-22T01:44:40.308Z,1.90
2022-10-22T01:47:37.234Z,1.98
2022-10-22T01:50:27.011Z,1.42
2022-10-22T01:53:01.726Z,1.20
2022-10-22T01:55:56.903Z,1.67
2022-10-22T01:58:53.372Z,1.55
2022-10-22T02:01:37.552Z,2.22
2022-10-22T02:04:26.873Z,1.45
2022-10-22T02:06:57.528Z,1.67
2022-10-22T02:09:26.391Z,1.70
2022-10-22T02:11:54.223Z,1.30
2022-10-22T02:14:22.505Z,1.83
2022-10-22T02:16:50.817Z,1.20
2022-10-22T02:19:30.838Z,1.33
2022-10-22T02:21:57.871Z,1.67
2022-10-22T02:24:25.383Z,1.48
2022-10-22T02:27:07.208Z,1.60
2022-10-22T02:29:41.673Z,1.23
2022-10-22T02:32:11.683Z,1.45
2022-10-22T02:34:39.129Z,1.77
2022-10-22T02:39:35.508Z,1.38
2022-10-22T02:42:03.209Z,1.45
2022-10-22T02:44:30.081Z,1.45
2022-10-22T02:46:59.489Z,1.70
2022-10-22T02:49:26.465Z,1.30
2022-10-22T02:51:53.358Z,1.67
2022-10-22T02:54:20.248Z,1.70
2022-10-22T02:56:47.177Z,1.50
2022-10-22T02:59:14.148Z,1.85
2022-10-22T03:01:41.096Z,2.55
2022-10-22T03:04:08.071Z,1.73
2022-10-22T03:06:35.155Z,1.70
2022-10-22T03:09:02.183Z,1.77
2022-10-22T03:11:29.138Z,1.38
2022-10-22T03:13:56.011Z,2.15
2022-10-22T03:16:22.927Z,1.60
2022-10-22T03:18:49.834Z,1.30
2022-10-22T03:21:31.784Z,1.33
2022-10-22T03:24:01.317Z,1.25
2022-10-22T03:26:28.339Z,1.65
2022-10-22T03:28:55.481Z,1.85
2022-10-22T03:31:22.345Z,1.38
2022-10-22T03:33:49.270Z,1.27
2022-10-22T03:36:16.238Z,1.67
2022-10-22T03:38:43.216Z,1.50
2022-10-22T03:41:10.449Z,1.92
2022-10-22T03:43:40.653Z,1.23
2022-10-22T03:46:07.555Z,1.02
2022-10-22T03:48:34.488Z,1.63
2022-10-22T03:51:01.409Z,1.65
2022-10-22T03:53:28.294Z,2.10
2022-10-22T03:55:55.213Z,1.92
2022-10-22T03:58:22.185Z,2.05
2022-10-22T04:00:49.073Z,1.38
2022-10-22T04:03:16.014Z,1.55
2022-10-22T04:05:42.920Z,1.88
2022-10-22T04:08:09.834Z,1.65
2022-10-22T04:10:36.865Z,2.05
2022-10-22T04:13:03.732Z,1.58
2022-10-22T04:15:30.676Z,1.88
2022-10-22T04:17:57.580Z,2.17
2022-10-22T04:20:24.449Z,1.73
2022-10-22T04:22:51.376Z,2.35
2022-10-22T04:25:18.244Z,2.47
2022-10-22T04:27:45.078Z,2.13
2022-10-22T04:30:12.681Z,2.05
2022-10-22T04:32:39.590Z,2.25
2022-10-22T04:35:06.970Z,2.10
2022-10-22T04:42:27.862Z,2.00
2022-10-22T04:44:54.728Z,2.25
2022-10-22T04:47:21.719Z,2.22
2022-10-22T04:49:48.631Z,2.03
2022-10-22T04:52:15.540Z,1.63
2022-10-22T04:54:42.417Z,1.73
2022-10-22T04:57:09.316Z,1.80
2022-10-22T04:59:36.317Z,2.10
2022-10-22T05:02:03.361Z,2.15
2022-10-22T05:04:30.308Z,1.88
2022-10-22T05:06:57.207Z,1.83
2022-10-22T05:09:24.196Z,1.40
2022-10-22T05:11:53.205Z,2.13
2022-10-22T05:14:22.908Z,1.35
2022-10-22T05:16:50.969Z,1.63
2022-10-22T05:19:24.091Z,2.28
2022-10-22T05:21:52.298Z,1.52
2022-10-22T05:24:19.588Z,2.10
2022-10-22T05:26:48.463Z,1.67
2022-10-22T05:29:15.338Z,2.17
2022-10-22T05:31:42.268Z,1.95
2022-10-22T05:34:09.327Z,1.83
2022-10-22T05:36:36.469Z,1.30
2022-10-22T05:39:04.005Z,1.60
2022-10-22T05:41:31.010Z,1.90
2022-10-22T05:43:59.491Z,1.90
2022-10-22T05:46:29.868Z,2.63
2022-10-22T05:48:59.589Z,2.40
2022-10-22T05:51:32.186Z,2.30
2022-10-22T05:54:02.332Z,1.88
2022-10-22T05:56:31.811Z,2.53
2022-10-22T05:58:58.880Z,2.58
2022-10-22T06:01:29.048Z,2.33
2022-10-22T06:03:58.756Z,2.75
2022-10-22T06:06:42.414Z,2.38
2022-10-22T06:09:23.203Z,2.03
2022-10-22T06:11:51.021Z,2.35
2022-10-22T06:14:19.122Z,2.22
2022-10-22T06:16:46.110Z,2.67
2022-10-22T06:19:14.528Z,2.05
2022-10-22T06:21:41.822Z,2.90
2022-10-22T06:24:09.984Z,2.30
2022-10-22T06:26:36.967Z,2.30
2022-10-22T06:29:04.711Z,2.22
2022-10-22T06:31:36.939Z,2.30
2022-10-22T06:34:10.277Z,2.83
2022-10-22T06:36:37.623Z,1.92
2022-10-22T06:41:32.543Z,2.30
2022-10-22T06:44:00.006Z,1.92
2022-10-22T06:46:27.092Z,2.28
2022-10-22T06:48:59.958Z,2.92
2022-10-22T06:51:27.688Z,2.30
2022-10-22T06:53:56.221Z,2.42
2022-10-22T06:56:25.743Z,2.17
2022-10-22T06:58:54.148Z,2.30
2022-10-22T07:01:25.639Z,2.30
2022-10-22T07:03:53.662Z,2.83
2022-10-22T07:06:21.869Z,2.72
2022-10-22T07:08:49.078Z,2.15
2022-10-22T07:11:30.142Z,2.20
2022-10-22T07:13:59.797Z,2.00
2022-10-22T07:16:31.125Z,1.77
2022-10-22T07:19:00.861Z,2.38
2022-10-22T07:21:28.197Z,1.88
2022-10-22T07:28:49.441Z,2.40
2022-10-22T07:31:18.036Z,2.42
2022-10-22T07:33:45.306Z,2.03
2022-10-22T07:36:17.602Z,2.15
2022-10-22T07:38:52.976Z,1.92
2022-10-22T07:41:19.937Z,2.22
2022-10-22T07:43:46.937Z,2.08
2022-10-22T07:46:14.200Z,2.22
2022-10-22T07:48:41.251Z,2.10
2022-10-22T07:51:08.206Z,1.98
2022-10-22T07:53:35.397Z,1.60
2022-10-22T07:56:02.517Z,1.65
2022-10-22T07:58:29.712Z,1.48
2022-10-22T08:00:58.807Z,1.90
2022-10-22T08:03:25.734Z,1.38
2022-10-22T08:05:54.027Z,1.63
2022-10-22T08:08:21.694Z,1.95
2022-10-22T08:10:50.873Z,1.95
2022-10-22T08:13:17.804Z,2.03
2022-10-22T08:15:46.705Z,2.08
2022-10-22T08:18:13.776Z,1.50
2022-10-22T08:20:41.876Z,1.77
2022-10-22T08:23:08.971Z,1.75
2022-10-22T08:25:36.441Z,1.90
2022-10-22T08:28:03.792Z,1.48
2022-10-22T08:32:57.606Z,2.13
2022-10-22T08:35:24.532Z,1.23
2022-10-22T08:37:51.408Z,1.20
2022-10-22T08:40:28.485Z,1.65
2022-10-22T08:45:48.148Z,1.70
2022-10-22T08:48:27.168Z,1.20
2022-10-22T08:50:57.457Z,1.00
2022-10-22T08:54:05.994Z,1.27
2022-10-22T08:56:36.781Z,1.42
2022-10-22T08:59:16.506Z,1.33
2022-10-22T09:01:49.935Z,1.58
2022-10-22T09:04:39.132Z,1.85
2022-10-22T09:07:06.006Z,1.98
2022-10-22T09:09:46.716Z,1.20
2022-10-22T09:12:20.262Z,1.02
2022-10-22T09:14:47.582Z,1.45
2022-10-22T09:17:29.301Z,1.02
2022-10-22T09:20:15.995Z,1.15
2022-10-22T09:22:52.723Z,1.63
2022-10-22T09:25:23.110Z,1.23
2022-10-22T09:27:50.604Z,1.55
2022-10-22T09:30:20.898Z,1.10
2022-10-22T09:32:54.488Z,1.17
2022-10-22T09:35:24.800Z,1.30
2022-10-22T09:37:55.400Z,1.65
2022-10-22T09:40:23.615Z,1.48
2022-10-22T09:42:50.625Z,1.70
2022-10-22T09:45:24.324Z,1.58
2022-10-22T09:48:20.665Z,1.27
2022-10-22T09:50:50.135Z,1.17
2022-10-22T09:53:25.929Z,1.42
2022-10-22T09:58:28.329Z,1.20
2022-10-22T10:00:58.429Z,1.17
2022-10-22T10:03:29.524Z,1.48
2022-10-22T10:06:03.204Z,1.10
2022-10-22T10:08:33.732Z,1.58
2022-10-22T10:11:05.636Z,1.42
2022-10-22T10:14:01.438Z,1.27
2022-10-22T10:16:44.812Z,1.50
2022-10-22T10:19:27.353Z,1.30
2022-10-22T10:22:03.230Z,1.40
2022-10-22T10:24:56.964Z,1.10
2022-10-22T10:27:26.767Z,1.23
2022-10-22T10:30:09.932Z,1.30
2022-10-22T10:33:06.067Z,1.10
2022-10-22T10:35:58.596Z,1.13
2022-10-22T10:38:46.242Z,1.02
2022-10-22T10:41:17.671Z,1.05
2022-10-22T10:43:50.619Z,0.93
2022-10-22T10:46:36.973Z,0.77
2022-10-22T10:49:17.511Z,1.48
2022-10-22T10:52:18.908Z,1.00
2022-10-22T10:54:54.097Z,1.30
2022-10-22T10:57:30.080Z,1.25
2022-10-22T11:00:11.917Z,0.73
2022-10-22T11:05:34.178Z,0.82
2022-10-22T11:08:12.185Z,0.93
2022-10-22T11:10:54.358Z,1.38
2022-10-22T11:13:30.883Z,0.90
2022-10-22T11:16:18.036Z,0.90
2022-10-22T11:18:53.579Z,0.95
2022-10-22T11:21:29.635Z,1.00
2022-10-22T11:24:44.292Z,0.93
2022-10-22T11:27:39.386Z,0.70
2022-10-22T11:30:16.010Z,0.98
2022-10-22T11:32:46.121Z,0.70
2022-10-22T11:35:25.914Z,0.80
2022-10-22T11:37:56.221Z,1.00
2022-10-22T11:40:35.771Z,1.20
2022-10-22T11:43:07.719Z,1.13
2022-10-22T11:45:43.937Z,0.80
2022-10-22T11:48:10.844Z,0.80
2022-10-22T11:50:55.038Z,1.20
2022-10-22T11:53:42.256Z,1.02
2022-10-22T11:56:13.067Z,1.15
2022-10-22T11:58:44.669Z,0.73
2022-10-22T12:01:11.612Z,0.70
2022-10-22T12:03:41.082Z,0.60
2022-10-22T12:06:11.978Z,0.75
2022-10-22T12:08:49.980Z,0.95
2022-10-22T12:11:40.108Z,1.10
2022-10-22T12:14:24.374Z,1.00
2022-10-22T12:17:17.817Z,1.02
2022-10-22T12:19:50.082Z,0.90
2022-10-22T12:22:32.535Z,0.70
2022-10-22T12:25:09.527Z,0.88
2022-10-22T12:27:41.488Z,0.85
2022-10-22T12:30:27.211Z,0.80
2022-10-22T12:32:57.074Z,0.82
2022-10-22T12:35:26.652Z,0.77
2022-10-22T12:38:10.845Z,0.88
2022-10-22T12:40:44.565Z,0.90
2022-10-22T12:43:17.961Z,0.80
2022-10-22T12:45:47.499Z,0.60
2022-10-22T12:48:19.244Z,0.85
2022-10-22T12:50:55.290Z,0.85
2022-10-22T12:53:30.529Z,0.60
2022-10-22T12:56:02.536Z,0.60
2022-10-22T12:58:41.631Z,0.65
2022-10-22T13:01:12.185Z,0.70
2022-10-22T13:03:50.816Z,0.65
2022-10-22T13:06:20.951Z,0.85
2022-10-22T13:09:15.460Z,0.73
2022-10-22T13:11:49.546Z,0.68
2022-10-22T13:14:26.335Z,0.70
2022-10-22T13:17:14.926Z,1.17
2022-10-22T13:19:44.788Z,0.70
2022-10-22T13:22:38.558Z,0.68
2022-10-22T13:25:14.661Z,0.85
2022-10-22T13:27:48.552Z,0.90
2022-10-22T13:30:19.423Z,0.60
2022-10-22T13:32:51.192Z,0.80
2022-10-22T13:35:24.403Z,0.85
2022-10-22T13:37:52.136Z,0.85
2022-10-22T13:40:19.475Z,0.50
2022-10-22T13:45:14.509Z,0.60
2022-10-22T13:47:44.753Z,0.60
2022-10-22T13:50:15.287Z,0.88
2022-10-22T13:52:52.645Z,0.70
2022-10-22T13:55:31.905Z,0.70
2022-10-22T14:00:47.311Z,0.82
2022-10-22T14:03:17.891Z,0.85
2022-10-22T14:05:46.745Z,0.70
2022-10-22T14:08:16.968Z,0.50
2022-10-22T14:10:44.753Z,0.50
2022-10-22T14:13:12.935Z,0.88
2022-10-22T14:15:40.984Z,0.68
2022-10-22T14:18:12.393Z,0.90
2022-10-22T14:20:42.159Z,0.75
2022-10-22T14:25:43.676Z,0.70
2022-10-22T14:28:14.194Z,0.82
2022-10-22T14:30:41.564Z,0.82
2022-10-22T14:36:02.265Z,0.70
2022-10-22T14:38:29.653Z,0.80
2022-10-22T14:40:57.866Z,0.75
2022-10-22T14:43:27.997Z,0.70
2022-10-22T14:45:55.585Z,0.50
2022-10-22T14:48:22.636Z,0.60
2022-10-22T14:50:49.659Z,0.80
2022-10-22T14:53:16.903Z,0.75
2022-10-22T14:55:45.623Z,0.60
2022-10-22T14:58:12.687Z,0.80
2022-10-22T15:00:43.403Z,0.68
2022-10-22T15:03:11.730Z,0.60
2022-10-22T15:05:44.533Z,0.60
2022-10-22T15:08:14.019Z,0.50
2022-10-22T15:10:41.674Z,0.63
2022-10-22T15:13:08.937Z,0.60
2022-10-22T15:18:09.833Z,0.90
2022-10-22T15:20:36.754Z,0.80
2022-10-22T15:23:03.827Z,0.60
2022-10-22T15:25:30.769Z,0.60
2022-10-22T15:28:00.734Z,0.85
2022-10-22T15:30:34.555Z,0.50
2022-10-22T15:33:01.979Z,1.35
2022-10-22T15:35:28.892Z,0.70
2022-10-22T15:37:55.881Z,0.77
2022-10-22T15:40:22.830Z,0.68
2022-10-22T15:42:49.776Z,0.70
2022-10-22T15:45:16.888Z,1.10
2022-10-22T15:47:50.070Z,1.13
2022-10-22T15:50:17.333Z,0.90
2022-10-22T15:52:44.220Z,0.75
2022-10-22T15:57:39.341Z,0.75
2022-10-22T16:00:07.780Z,0.85
2022-10-22T16:02:43.360Z,0.75
2022-10-22T16:05:10.285Z,0.80
2022-10-22T16:07:37.660Z,0.93
2022-10-22T16:12:31.590Z,0.73
2022-10-22T16:14:58.472Z,0.98
2022-10-22T16:17:25.353Z,1.17
2022-10-22T16:19:54.497Z,1.48
2022-10-22T16:22:21.405Z,1.30
2022-10-22T16:24:48.310Z,1.05
2022-10-22T16:27:15.204Z,1.08
2022-10-22T16:29:42.176Z,0.98
2022-10-22T16:32:09.057Z,0.93
2022-10-22T16:34:35.947Z,1.35
2022-10-22T16:37:02.993Z,1.10
2022-10-22T16:39:29.929Z,1.15
2022-10-22T16:41:56.887Z,1.13
2022-10-22T16:44:26.321Z,1.00
2022-10-22T16:46:53.257Z,1.30
2022-10-22T16:49:20.267Z,1.17
2022-10-22T16:51:47.201Z,1.27
2022-10-22T16:54:15.566Z,1.25
2022-10-22T16:56:42.491Z,1.48
2022-10-22T16:59:11.506Z,1.33
2022-10-22T17:01:41.285Z,1.15
2022-10-22T17:04:08.971Z,1.13
2022-10-22T17:06:36.231Z,0.80
2022-10-22T17:09:03.724Z,1.35
2022-10-22T17:11:35.211Z,1.10
2022-10-22T17:14:03.656Z,1.52
2022-10-22T17:16:30.680Z,1.10
2022-10-22T17:18:58.205Z,0.98
2022-10-22T17:21:25.542Z,1.13
2022-10-22T17:23:56.836Z,1.23
2022-10-22T17:26:26.489Z,0.75
2022-10-22T17:28:54.016Z,0.90
2022-10-22T17:31:23.819Z,1.00
2022-10-22T17:33:53.162Z,0.73
2022-10-22T17:36:20.980Z,1.20
2022-10-22T17:38:53.612Z,1.15
2022-10-22T17:41:25.434Z,0.85
2022-10-22T17:43:52.498Z,1.13
2022-10-22T17:46:27.803Z,1.27
2022-10-22T17:48:56.976Z,1.30
2022-10-22T17:51:25.654Z,1.08
2022-10-22T17:53:52.682Z,1.00
2022-10-22T17:56:22.124Z,1.33
2022-10-22T17:58:49.652Z,1.17
2022-10-22T18:01:27.148Z,1.27
2022-10-22T18:03:55.560Z,1.40
2022-10-22T18:06:23.056Z,1.40
2022-10-22T18:08:50.084Z,1.65
2022-10-22T18:11:19.984Z,0.80
2022-10-22T18:13:51.561Z,1.00
2022-10-22T18:16:19.446Z,1.05
2022-10-22T18:18:51.612Z,1.33
2022-10-22T18:21:19.036Z,1.85
2022-10-22T18:23:46.268Z,1.23
2022-10-22T18:26:14.480Z,1.10
2022-10-22T18:28:41.437Z,1.20
2022-10-22T18:31:10.125Z,1.33
2022-10-22T18:33:37.845Z,1.20
2022-10-22T18:36:07.220Z,1.30
2022-10-22T18:38:34.629Z,1.35
2022-10-22T18:43:28.519Z,1.00
2022-10-22T18:45:55.378Z,1.60
2022-10-22T18:48:23.229Z,1.58
2022-10-22T18:51:01.214Z,1.23
2022-10-22T18:53:29.829Z,1.40
2022-10-22T18:55:59.085Z,1.50
2022-10-22T18:58:27.569Z,1.23
2022-10-22T19:00:57.808Z,1.25
2022-10-22T19:03:24.704Z,1.30
2022-10-22T19:05:54.258Z,1.20
2022-10-22T19:08:22.473Z,2.28
2022-10-22T19:10:50.044Z,2.22
2022-10-22T19:15:47.814Z,2.20
2022-10-22T19:18:15.165Z,2.08
2022-10-22T19:23:11.637Z,15.10
2022-10-22T19:25:38.989Z,25.73
2022-10-22T19:28:06.008Z,24.40
2022-10-22T19:30:32.995Z,18.27
2022-10-22T19:32:59.877Z,15.85
2022-10-22T19:35:26.828Z,14.75
2022-10-22T19:37:53.798Z,9.07
2022-10-22T19:40:20.793Z,6.93
2022-10-22T19:42:50.332Z,4.32
2022-10-22T19:45:18.147Z,6.47
2022-10-22T19:47:45.159Z,2.85
2022-10-22T19:50:12.134Z,5.05
2022-10-22T19:52:39.286Z,4.65
2022-10-22T19:57:33.701Z,1.95
2022-10-22T20:00:00.670Z,1.60
2022-10-22T20:02:27.744Z,1.77
2022-10-22T20:04:54.696Z,1.35
2022-10-22T20:07:22.510Z,1.10
2022-10-22T20:09:49.645Z,0.90
2022-10-22T20:12:16.635Z,2.08
2022-10-22T20:14:43.546Z,2.00
2022-10-22T20:17:10.429Z,2.25
2022-10-22T20:19:37.473Z,2.10
2022-10-22T20:22:04.372Z,2.03
2022-10-22T20:24:32.344Z,1.77
2022-10-22T20:27:09.365Z,1.02
2022-10-22T20:29:36.937Z,2.00
2022-10-22T20:32:05.489Z,1.73
2022-10-22T20:34:35.021Z,1.83
2022-10-22T20:37:01.994Z,2.00
2022-10-22T20:39:28.840Z,1.52
2022-10-22T20:41:55.761Z,2.13
2022-10-22T20:44:22.605Z,1.48
2022-10-22T20:46:51.642Z,1.77
2022-10-22T20:49:20.849Z,1.52
2022-10-22T20:51:47.815Z,1.52
2022-10-22T20:54:15.794Z,1.60
2022-10-22T20:56:43.757Z,1.23
2022-10-22T20:59:12.235Z,1.60
2022-10-22T21:01:48.112Z,1.38
2022-10-22T21:04:16.445Z,1.50
2022-10-22T21:06:43.500Z,1.58
2022-10-22T21:09:12.806Z,3.03
2022-10-22T21:11:41.737Z,5.30
2022-10-22T21:14:10.476Z,3.13
2022-10-22T21:16:44.262Z,9.45
2022-10-22T21:19:11.684Z,5.30
2022-10-22T21:24:05.712Z,5.28
2022-10-22T21:26:32.714Z,8.07
2022-10-22T21:28:59.709Z,2.92
2022-10-22T21:31:27.799Z,4.50
2022-10-22T21:33:54.765Z,5.82
2022-10-22T21:36:23.479Z,5.10
2022-10-22T21:38:51.814Z,4.47
2022-10-22T21:41:20.386Z,3.22
2022-10-22T21:43:47.381Z,4.35
2022-10-22T21:46:16.806Z,2.25
2022-10-22T21:48:44.285Z,3.40
2022-10-22T21:53:41.140Z,1.98
2022-10-22T21:56:15.219Z,2.95
2022-10-22T21:58:44.522Z,3.08
2022-10-22T22:01:17.641Z,1.95
2022-10-22T22:03:52.523Z,2.17
2022-10-22T22:06:29.492Z,2.03
2022-10-22T22:09:02.364Z,2.85
2022-10-22T22:11:35.716Z,2.80
2022-10-22T22:14:09.298Z,2.20
2022-10-22T22:16:38.824Z,2.63
2022-10-22T22:19:08.437Z,1.98
2022-10-22T22:21:36.968Z,2.20
2022-10-22T22:24:04.168Z,2.25
2022-10-22T22:26:31.409Z,2.53
2022-10-22T22:28:59.784Z,3.80
2022-10-22T22:31:29.374Z,2.83
2022-10-22T22:34:03.619Z,3.10
2022-10-22T22:36:36.709Z,1.98
2022-10-22T22:39:05.453Z,2.05
2022-10-22T22:41:32.677Z,1.50
2022-10-22T22:43:59.857Z,1.20
2022-10-22T22:46:26.881Z,1.60
2022-10-22T22:48:53.818Z,2.13
2022-10-22T22:51:20.901Z,2.05
2022-10-22T22:53:48.029Z,1.30
2022-10-22T22:56:16.354Z,1.67
2022-10-22T22:58:43.950Z,1.42
2022-10-22T23:01:24.265Z,1.48
2022-10-22T23:03:57.252Z,1.40
2022-10-22T23:06:26.410Z,1.30
2022-10-22T23:08:54.671Z,1.33
2022-10-22T23:11:23.269Z,1.25
2022-10-22T23:13:55.785Z,1.52
2022-10-22T23:16:25.154Z,1.58
2022-10-22T23:18:53.942Z,1.30
2022-10-22T23:21:24.341Z,1.63
2022-10-22T23:23:57.177Z,1.70
2022-10-22T23:26:28.863Z,2.28
2022-10-22T23:28:59.692Z,1.85
2022-10-22T23:31:26.949Z,1.38
2022-10-22T23:33:53.813Z,2.03
2022-10-22T23:36:20.750Z,1.95
2022-10-22T23:38:47.732Z,2.25
2022-10-22T23:41:14.659Z,2.05
2022-10-22T23:43:41.523Z,2.13
2022-10-22T23:46:11.090Z,1.70
2022-10-22T23:48:39.415Z,1.63
2022-10-22T23:51:08.084Z,1.90
2022-10-22T23:53:35.065Z,2.25
2022-10-22T23:56:11.121Z,1.40
2022-10-22T23:58:38.812Z,1.60
